Time;durP1;ratioP1;P1;durP2;ratioP2;P2;SDS_P1;SDS_P2;PMS_P1;PMS_P2;Temp;Humidity;BMP_temperature;BMP_pressure;BME280_temperature;BME280_humidity;BME280_pressure;Samples;Min_cycle;Max_cycle;Signal;HPM_P1;HPM_P2
2023/10/20 00:00:59;;;;;;;23.77;16.42;;;8.50;96.60;;;;;;4999892;28;20038;-84
2023/10/20 00:03:25;;;;;;;21.08;16.02;;;8.40;96.60;;;;;;4983123;28;20470;-84
2023/10/20 00:05:50;;;;;;;21.52;15.85;;;8.40;96.70;;;;;;4967635;28;20117;-85
2023/10/20 00:08:16;;;;;;;24.33;16.70;;;8.50;96.60;;;;;;5017996;28;20041;-85
2023/10/20 00:10:42;;;;;;;20.95;15.27;;;8.50;96.70;;;;;;4986840;28;20042;-85
2023/10/20 00:13:09;;;;;;;19.25;13.90;;;8.50;96.80;;;;;;5000352;28;20458;-85
2023/10/20 00:15:35;;;;;;;20.98;15.45;;;8.40;96.70;;;;;;4998916;28;20081;-85
2023/10/20 00:18:02;;;;;;;24.05;15.20;;;8.50;96.70;;;;;;5001916;28;20124;-85
2023/10/20 00:20:28;;;;;;;20.67;15.20;;;8.40;96.60;;;;;;4998828;28;20482;-84
2023/10/20 00:22:55;;;;;;;23.85;15.15;;;8.40;96.70;;;;;;4982600;28;20034;-84
2023/10/20 00:25:21;;;;;;;26.20;13.80;;;8.40;96.70;;;;;;4998881;28;20139;-84
2023/10/20 00:27:47;;;;;;;20.27;15.15;;;8.50;96.70;;;;;;4982845;28;20536;-85
2023/10/20 00:30:14;;;;;;;24.15;15.18;;;8.40;96.70;;;;;;4998706;28;20041;-84
2023/10/20 00:32:40;;;;;;;19.27;13.80;;;8.50;96.70;;;;;;4998253;28;20111;-85
2023/10/20 00:35:13;;;;;;;20.33;14.13;;;8.50;96.60;;;;;;5014680;28;20711;-85
2023/10/20 00:37:38;;;;;;;22.33;15.38;;;8.50;96.50;;;;;;4982909;28;20371;-85
2023/10/20 00:40:09;;;;;;;20.25;14.43;;;8.50;96.50;;;;;;4998741;28;20064;-86
2023/10/20 00:42:35;;;;;;;19.65;14.48;;;8.50;96.50;;;;;;4999045;28;20041;-84
2023/10/20 00:45:01;;;;;;;20.48;14.75;;;8.50;96.30;;;;;;4966507;28;20033;-85
2023/10/20 00:47:27;;;;;;;21.48;15.48;;;8.50;96.50;;;;;;4966356;28;20037;-85
2023/10/20 00:49:54;;;;;;;21.25;15.50;;;8.50;96.60;;;;;;4968383;28;20479;-84
2023/10/20 00:52:21;;;;;;;20.73;15.00;;;8.40;96.50;;;;;;4978814;28;20058;-85
2023/10/20 00:54:47;;;;;;;22.50;16.33;;;8.50;96.50;;;;;;4947327;28;20050;-85
2023/10/20 00:57:16;;;;;;;21.25;14.43;;;8.50;96.40;;;;;;4930933;28;20049;-85
2023/10/20 00:59:42;;;;;;;22.13;15.60;;;8.40;96.40;;;;;;4947375;28;20054;-85
2023/10/20 01:02:08;;;;;;;24.50;15.50;;;8.40;96.50;;;;;;4967083;28;20042;-85
2023/10/20 01:04:34;;;;;;;20.05;15.65;;;8.50;96.50;;;;;;4932362;28;20049;-85
2023/10/20 01:07:00;;;;;;;20.90;15.15;;;8.50;96.50;;;;;;4970711;28;20455;-85
2023/10/20 01:09:27;;;;;;;21.55;14.75;;;8.50;96.40;;;;;;4982044;28;20045;-85
2023/10/20 01:11:53;;;;;;;22.13;15.95;;;8.40;96.40;;;;;;4998013;28;20046;-85
2023/10/20 01:14:20;;;;;;;20.38;14.95;;;8.40;96.30;;;;;;4968354;28;20471;-84
2023/10/20 01:16:46;;;;;;;24.67;16.50;;;8.40;96.50;;;;;;4999433;28;20046;-85
2023/10/20 01:19:12;;;;;;;17.58;13.35;;;8.40;96.50;;;;;;4982872;28;20033;-84
2023/10/20 01:21:38;;;;;;;25.67;16.77;;;8.40;96.50;;;;;;4981599;28;20038;-85
2023/10/20 01:24:05;;;;;;;23.08;15.27;;;8.40;96.50;;;;;;4950098;28;20124;-85
2023/10/20 01:26:31;;;;;;;20.88;14.82;;;8.40;96.60;;;;;;4949687;28;20038;-85
2023/10/20 01:28:58;;;;;;;23.38;15.70;;;8.50;96.50;;;;;;4982244;28;20485;-85
2023/10/20 01:31:23;;;;;;;26.58;16.45;;;8.50;96.50;;;;;;4982728;28;20041;-85
2023/10/20 01:33:49;;;;;;;26.27;16.40;;;8.50;96.50;;;;;;4978353;28;20394;-84
2023/10/20 01:36:15;;;;;;;24.05;16.10;;;8.40;96.50;;;;;;4994507;28;20407;-84
2023/10/20 01:38:41;;;;;;;22.63;15.63;;;8.40;96.50;;;;;;4995171;28;20451;-84
2023/10/20 01:41:07;;;;;;;24.80;16.48;;;8.40;96.60;;;;;;4978320;28;20130;-85
2023/10/20 01:43:33;;;;;;;24.55;15.73;;;8.30;96.50;;;;;;4979661;28;20042;-84
2023/10/20 01:46:01;;;;;;;22.63;15.40;;;8.40;96.70;;;;;;4995517;28;20391;-85
2023/10/20 01:48:27;;;;;;;26.25;16.75;;;8.40;96.60;;;;;;4963242;28;20045;-85
2023/10/20 01:50:52;;;;;;;21.85;15.10;;;8.40;96.70;;;;;;5006282;28;20018;-84
2023/10/20 01:53:18;;;;;;;27.58;17.75;;;8.40;96.60;;;;;;4977684;28;20058;-84
2023/10/20 01:55:50;;;;;;;22.67;15.57;;;8.40;96.70;;;;;;4963819;28;20038;-85
2023/10/20 01:58:20;;;;;;;28.60;16.90;;;8.40;96.70;;;;;;4932493;28;20090;-86
2023/10/20 02:00:50;;;;;;;25.33;17.35;;;8.30;96.70;;;;;;4962224;28;20463;-85
2023/10/20 02:03:16;;;;;;;22.65;15.40;;;8.30;96.70;;;;;;4961319;28;20089;-85
2023/10/20 02:05:42;;;;;;;27.38;17.77;;;8.40;96.70;;;;;;4927312;28;20043;-85
2023/10/20 02:08:11;;;;;;;28.20;17.88;;;8.40;96.80;;;;;;4926442;28;20073;-84
2023/10/20 02:10:37;;;;;;;26.42;17.13;;;8.30;96.80;;;;;;4911628;28;20038;-85
2023/10/20 02:13:03;;;;;;;32.05;18.77;;;8.30;96.80;;;;;;4941490;28;20038;-85
2023/10/20 02:15:29;;;;;;;29.48;16.77;;;8.30;96.80;;;;;;4974232;28;20134;-85
2023/10/20 02:17:56;;;;;;;27.38;17.27;;;8.30;96.70;;;;;;4941941;28;20042;-85
2023/10/20 02:20:24;;;;;;;30.35;17.83;;;8.30;96.80;;;;;;4974293;28;20423;-85
2023/10/20 02:22:52;;;;;;;29.50;16.35;;;8.30;96.80;;;;;;4974041;28;20035;-84
2023/10/20 02:25:19;;;;;;;26.05;17.10;;;8.30;96.90;;;;;;4974286;28;20043;-84
2023/10/20 02:27:47;;;;;;;32.22;19.10;;;8.30;97.00;;;;;;4974251;28;20387;-85
2023/10/20 02:30:14;;;;;;;30.00;17.80;;;8.30;97.10;;;;;;4974004;28;20046;-84
2023/10/20 02:32:40;;;;;;;31.45;19.23;;;8.30;97.00;;;;;;4926409;28;20043;-84
2023/10/20 02:35:07;;;;;;;26.13;17.40;;;8.30;96.90;;;;;;4910226;28;20046;-85
2023/10/20 02:37:33;;;;;;;31.13;18.48;;;8.30;97.00;;;;;;4977444;28;20042;-85
2023/10/20 02:39:59;;;;;;;30.58;19.33;;;8.30;97.10;;;;;;4977386;28;20043;-84
2023/10/20 02:42:24;;;;;;;28.90;18.20;;;8.30;97.00;;;;;;4960864;28;20042;-85
2023/10/20 02:44:50;;;;;;;28.55;18.55;;;8.30;97.00;;;;;;4961030;28;20034;-84
2023/10/20 02:47:16;;;;;;;28.73;18.45;;;8.30;97.00;;;;;;4929318;28;20403;-84
2023/10/20 02:49:42;;;;;;;35.08;19.90;;;8.30;97.00;;;;;;4929157;28;20384;-84
2023/10/20 02:52:07;;;;;;;34.42;21.08;;;8.30;97.00;;;;;;4965056;28;20141;-85
2023/10/20 02:54:34;;;;;;;32.20;20.30;;;8.30;97.00;;;;;;4996276;28;20046;-84
2023/10/20 02:57:00;;;;;;;30.75;18.42;;;8.30;97.00;;;;;;4980595;28;20050;-85
2023/10/20 02:59:25;;;;;;;34.17;20.50;;;8.30;97.00;;;;;;4963964;28;20046;-84
2023/10/20 03:01:54;;;;;;;28.23;20.17;;;8.30;97.10;;;;;;4964136;28;20049;-84
2023/10/20 03:04:20;;;;;;;31.23;18.77;;;8.30;97.20;;;;;;4980522;28;20494;-85
2023/10/20 03:06:46;;;;;;;32.13;19.63;;;8.30;97.20;;;;;;4979267;28;20087;-84
2023/10/20 03:09:13;;;;;;;26.60;17.38;;;8.30;97.20;;;;;;4978938;28;20513;-85
2023/10/20 03:11:39;;;;;;;32.97;21.02;;;8.30;97.00;;;;;;4992853;28;20052;-85
2023/10/20 03:14:05;;;;;;;33.28;19.13;;;8.30;97.10;;;;;;4960379;28;20042;-85
2023/10/20 03:16:31;;;;;;;32.03;19.70;;;8.30;97.10;;;;;;4961683;28;20104;-85
2023/10/20 03:18:57;;;;;;;29.80;20.27;;;8.30;97.00;;;;;;4973982;28;20387;-85
2023/10/20 03:21:23;;;;;;;27.73;18.92;;;8.30;97.00;;;;;;4976438;28;20065;-84
2023/10/20 03:23:49;;;;;;;35.20;20.75;;;8.30;97.10;;;;;;4976313;28;20035;-85
2023/10/20 03:26:15;;;;;;;27.90;17.48;;;8.30;97.10;;;;;;4978532;28;20042;-85
2023/10/20 03:28:41;;;;;;;31.80;19.60;;;8.20;97.10;;;;;;4996877;28;20125;-85
2023/10/20 03:31:07;;;;;;;30.13;19.00;;;8.20;97.30;;;;;;4997920;28;20053;-84
2023/10/20 03:33:33;;;;;;;33.17;19.65;;;8.30;97.20;;;;;;4999448;28;20549;-85
2023/10/20 03:36:08;;;;;;;29.13;18.50;;;8.20;97.30;;;;;;4953447;28;20065;-84
2023/10/20 03:38:34;;;;;;;40.92;21.00;;;8.20;97.30;;;;;;4984088;28;20042;-84
2023/10/20 03:41:09;;;;;;;28.20;17.88;;;8.20;97.40;;;;;;4983479;28;20038;-86
2023/10/20 03:43:36;;;;;;;29.02;18.38;;;8.20;97.40;;;;;;5001848;28;20402;-84
2023/10/20 03:46:03;;;;;;;26.88;17.80;;;8.20;97.30;;;;;;4970474;28;20433;-85
2023/10/20 03:48:29;;;;;;;32.50;18.90;;;8.20;97.30;;;;;;4999761;28;20033;-85
2023/10/20 03:50:55;;;;;;;30.90;18.75;;;8.20;97.40;;;;;;4970144;28;20393;-85
2023/10/20 03:53:27;;;;;;;31.90;17.90;;;8.20;97.40;;;;;;4939085;28;20059;-84
2023/10/20 03:56:11;;;;;;;28.83;18.85;;;8.20;97.30;;;;;;4968142;28;20088;-85
2023/10/20 03:58:37;;;;;;;31.15;20.25;;;8.20;97.30;;;;;;4932353;28;20133;-85
2023/10/20 04:01:03;;;;;;;26.80;19.20;;;8.20;97.30;;;;;;4948147;28;20137;-85
2023/10/20 04:03:32;;;;;;;30.13;18.13;;;8.20;97.30;;;;;;4965486;28;20509;-85
2023/10/20 04:05:59;;;;;;;27.48;17.58;;;8.10;97.30;;;;;;4963886;28;20043;-85
2023/10/20 04:08:25;;;;;;;31.38;20.50;;;8.10;97.20;;;;;;4963694;28;20038;-85
2023/10/20 04:10:57;;;;;;;29.00;18.98;;;8.10;97.20;;;;;;4948045;28;20128;-84
2023/10/20 04:13:23;;;;;;;30.02;19.20;;;8.10;97.30;;;;;;4963578;28;20046;-84
2023/10/20 04:15:50;;;;;;;28.27;17.50;;;8.10;97.40;;;;;;4947394;28;20125;-85
2023/10/20 04:18:16;;;;;;;27.10;17.25;;;8.10;97.40;;;;;;4981900;28;20042;-84
2023/10/20 04:20:42;;;;;;;29.38;19.02;;;8.10;97.30;;;;;;4963579;28;20096;-84
2023/10/20 04:23:08;;;;;;;31.45;18.80;;;8.20;97.10;;;;;;4995797;28;20050;-84
2023/10/20 04:25:52;;;;;;;26.77;18.05;;;8.10;97.10;;;;;;4995959;28;20039;-84
2023/10/20 04:28:28;;;;;;;30.70;18.25;;;8.10;97.20;;;;;;4949544;28;20046;-85
2023/10/20 04:52:06;;;;;;;22.35;14.48;;;8.10;97.10;;;;;;4982637;28;20068;-82
2023/10/20 04:54:45;;;;;;;20.70;13.57;;;8.10;96.90;;;;;;4998269;28;20053;-84
2023/10/20 04:59:59;;;;;;;19.00;13.52;;;8.30;96.40;;;;;;4980978;28;20090;-82
2023/10/20 05:02:33;;;;;;;16.73;12.60;;;8.30;96.10;;;;;;4959507;28;20437;-82
2023/10/20 05:05:06;;;;;;;17.42;13.07;;;8.40;95.90;;;;;;4943427;28;20034;-84
2023/10/20 05:07:32;;;;;;;15.88;11.48;;;8.30;95.80;;;;;;4955868;28;20057;-83
2023/10/20 05:09:59;;;;;;;16.20;10.27;;;8.30;95.80;;;;;;4977500;28;20034;-82
2023/10/20 05:12:25;;;;;;;14.88;10.25;;;8.40;95.80;;;;;;4969186;28;20046;-81
2023/10/20 05:14:51;;;;;;;16.27;12.02;;;8.40;95.50;;;;;;4971521;28;20038;-84
2023/10/20 05:17:18;;;;;;;16.85;10.93;;;8.40;95.50;;;;;;4954973;28;20077;-82
2023/10/20 05:19:44;;;;;;;15.18;10.70;;;8.40;95.50;;;;;;5013411;28;20038;-81
2023/10/20 05:22:10;;;;;;;15.80;12.00;;;8.30;95.60;;;;;;4965669;28;20045;-81
2023/10/20 05:24:35;;;;;;;16.85;12.65;;;8.40;95.50;;;;;;4997533;28;20045;-84
2023/10/20 05:27:01;;;;;;;19.85;13.48;;;8.40;95.40;;;;;;4981427;28;20034;-84
2023/10/20 05:29:27;;;;;;;17.73;13.18;;;8.20;95.60;;;;;;4965359;28;20046;-84
2023/10/20 05:31:52;;;;;;;17.80;12.70;;;8.20;95.70;;;;;;4981236;28;20042;-84
2023/10/20 05:34:18;;;;;;;16.45;12.52;;;8.20;95.80;;;;;;4965234;28;20088;-85
2023/10/20 05:36:44;;;;;;;20.17;13.07;;;8.10;95.80;;;;;;4965155;28;20057;-86
2023/10/20 05:39:13;;;;;;;18.30;12.63;;;8.10;95.80;;;;;;4964943;28;20198;-85
2023/10/20 05:41:40;;;;;;;16.27;12.98;;;8.10;96.00;;;;;;4981637;28;20050;-84
2023/10/20 05:44:06;;;;;;;18.48;12.35;;;8.10;96.00;;;;;;4971783;28;20133;-85
2023/10/20 05:46:32;;;;;;;18.92;11.27;;;8.10;96.00;;;;;;4986534;28;20045;-85
2023/10/20 05:48:57;;;;;;;14.93;11.77;;;8.10;96.10;;;;;;4981535;28;20038;-85
2023/10/20 05:51:23;;;;;;;15.73;10.88;;;8.10;95.80;;;;;;4981013;28;20072;-83
2023/10/20 05:53:49;;;;;;;14.93;10.30;;;8.00;96.10;;;;;;4980655;28;20054;-85
2023/10/20 05:56:15;;;;;;;15.68;11.70;;;8.10;96.10;;;;;;4964737;28;20088;-85
2023/10/20 05:58:41;;;;;;;15.90;10.75;;;8.00;96.10;;;;;;4981311;28;20042;-83
2023/10/20 06:01:09;;;;;;;15.63;10.52;;;8.00;96.20;;;;;;4980947;28;20033;-83
2023/10/20 06:03:35;;;;;;;14.88;9.90;;;8.00;96.20;;;;;;4964742;28;20125;-82
2023/10/20 06:06:03;;;;;;;14.25;10.55;;;8.00;96.20;;;;;;4994357;28;20501;-83
2023/10/20 06:08:29;;;;;;;14.05;11.02;;;8.10;96.20;;;;;;4963895;28;20037;-82
2023/10/20 06:11:02;;;;;;;22.15;10.50;;;8.00;96.10;;;;;;4977851;28;20129;-84
2023/10/20 06:13:30;;;;;;;12.70;8.98;;;8.00;96.00;;;;;;5013051;28;20108;-82
2023/10/20 06:15:56;;;;;;;13.23;10.13;;;8.10;96.10;;;;;;4980614;28;20050;-85
2023/10/20 06:18:22;;;;;;;13.70;9.77;;;8.10;96.00;;;;;;4996513;28;20045;-83
2023/10/20 06:20:48;;;;;;;13.82;9.55;;;8.10;96.00;;;;;;4964421;28;20140;-83
2023/10/20 06:23:14;;;;;;;16.10;10.07;;;8.10;96.10;;;;;;4964054;28;20566;-84
2023/10/20 06:25:39;;;;;;;13.93;9.25;;;8.10;96.00;;;;;;4964883;28;20344;-83
2023/10/20 06:28:06;;;;;;;13.07;9.30;;;8.10;95.90;;;;;;4980947;28;20132;-83
2023/10/20 06:30:32;;;;;;;15.20;9.77;;;8.10;95.80;;;;;;4964928;28;20042;-85
2023/10/20 06:35:44;;;;;;;11.32;7.35;;;8.10;95.90;;;;;;4980649;28;20081;-84
2023/10/20 06:40:36;;;;;;;12.60;8.32;;;8.10;95.80;;;;;;4979637;28;20337;-85
2023/10/20 06:43:02;;;;;;;12.82;7.53;;;8.10;95.90;;;;;;4995536;28;20042;-84
2023/10/20 06:45:27;;;;;;;10.02;7.55;;;8.10;95.80;;;;;;4995587;28;20106;-85
2023/10/20 06:47:53;;;;;;;12.25;7.65;;;8.10;95.60;;;;;;4978813;28;20490;-84
2023/10/20 06:50:19;;;;;;;10.70;7.65;;;8.10;95.60;;;;;;4947600;28;20045;-86
2023/10/20 06:52:45;;;;;;;11.25;7.57;;;8.10;95.60;;;;;;4980554;28;20062;-84
2023/10/20 06:55:10;;;;;;;10.40;6.90;;;8.10;95.70;;;;;;4965212;28;20046;-85
2023/10/20 06:57:36;;;;;;;9.52;6.85;;;8.10;95.70;;;;;;4995884;28;20441;-85
2023/10/20 07:00:03;;;;;;;9.48;6.97;;;8.10;95.70;;;;;;4980014;28;20045;-84
2023/10/20 07:02:29;;;;;;;8.73;6.47;;;8.10;95.50;;;;;;4979710;28;20513;-85
2023/10/20 07:04:56;;;;;;;11.50;6.50;;;8.10;95.60;;;;;;4979842;28;20041;-86
2023/10/20 07:07:21;;;;;;;12.98;6.38;;;8.10;95.70;;;;;;4947982;28;20549;-85
2023/10/20 07:09:47;;;;;;;9.40;5.38;;;8.10;95.60;;;;;;4979727;28;20129;-85
2023/10/20 07:12:15;;;;;;;9.25;5.20;;;8.10;95.40;;;;;;4947556;28;20042;-85
2023/10/20 07:14:43;;;;;;;6.22;5.07;;;8.10;95.60;;;;;;4964128;28;20046;-82
2023/10/20 07:17:09;;;;;;;9.20;6.35;;;8.10;95.60;;;;;;4995720;28;20041;-85
2023/10/20 07:19:35;;;;;;;7.85;4.57;;;8.20;95.60;;;;;;4979610;28;20045;-85
2023/10/20 07:22:04;;;;;;;8.10;4.15;;;8.20;95.50;;;;;;4963541;28;20038;-86
2023/10/20 07:24:30;;;;;;;8.23;5.10;;;8.20;95.40;;;;;;4948312;28;20474;-86
2023/10/20 07:26:56;;;;;;;8.63;4.78;;;8.20;95.40;;;;;;4963684;28;20049;-85
2023/10/20 07:29:22;;;;;;;5.07;4.25;;;8.20;95.40;;;;;;4947348;28;20039;-84
2023/10/20 07:31:48;;;;;;;7.25;4.57;;;8.10;95.20;;;;;;4964429;28;20069;-83
2023/10/20 07:34:15;;;;;;;5.97;4.68;;;8.20;95.20;;;;;;4979354;28;20525;-84
2023/10/20 07:36:41;;;;;;;6.90;4.68;;;8.10;95.10;;;;;;4995767;28;20034;-83
2023/10/20 07:39:08;;;;;;;7.25;4.45;;;8.10;95.30;;;;;;4995773;28;20045;-83
2023/10/20 07:41:35;;;;;;;6.53;4.20;;;8.10;95.30;;;;;;4995755;28;20407;-84
2023/10/20 07:44:02;;;;;;;6.10;3.80;;;8.10;95.30;;;;;;5000800;28;20105;-85
2023/10/20 07:46:28;;;;;;;6.00;3.70;;;8.10;95.40;;;;;;4981566;28;20478;-84
2023/10/20 07:48:53;;;;;;;4.15;3.17;;;8.10;95.50;;;;;;4947140;28;20049;-84
2023/10/20 07:51:19;;;;;;;5.93;3.70;;;8.00;95.60;;;;;;4995403;28;20053;-85
2023/10/20 07:53:45;;;;;;;5.30;3.88;;;8.00;95.40;;;;;;4979052;28;20065;-83
2023/10/20 07:56:11;;;;;;;7.15;3.70;;;8.00;95.50;;;;;;4979389;28;20038;-84
2023/10/20 07:58:36;;;;;;;4.45;3.30;;;8.00;95.60;;;;;;4947303;28;20042;-84
2023/10/20 08:01:03;;;;;;;3.72;2.70;;;8.00;95.60;;;;;;4947505;28;20174;-88
2023/10/20 08:03:28;;;;;;;4.82;3.35;;;8.00;95.50;;;;;;4963285;28;20041;-85
2023/10/20 08:05:54;;;;;;;5.47;3.40;;;8.00;95.50;;;;;;4995259;28;20041;-83
2023/10/20 08:08:20;;;;;;;5.40;3.30;;;8.00;95.50;;;;;;4979071;28;20045;-84
2023/10/20 08:10:46;;;;;;;4.32;2.80;;;8.00;95.40;;;;;;4995149;28;20046;-84
2023/10/20 08:13:12;;;;;;;5.10;3.03;;;8.00;95.50;;;;;;4983370;28;20061;-84
2023/10/20 08:15:38;;;;;;;5.53;2.75;;;8.00;95.50;;;;;;4950960;28;20041;-86
2023/10/20 08:18:06;;;;;;;5.05;2.78;;;7.90;95.30;;;;;;4998766;28;20052;-85
2023/10/20 08:20:33;;;;;;;3.67;2.50;;;7.80;95.40;;;;;;4967420;28;20048;-84
2023/10/20 08:23:00;;;;;;;4.57;2.97;;;7.90;95.60;;;;;;4966514;28;20042;-86
2023/10/20 08:25:26;;;;;;;3.53;2.53;;;7.80;95.50;;;;;;4998922;28;20038;-85
2023/10/20 08:27:51;;;;;;;3.83;2.58;;;7.80;95.60;;;;;;4998645;28;20034;-85
2023/10/20 08:30:20;;;;;;;4.25;2.63;;;7.80;95.70;;;;;;4999033;28;20038;-84
2023/10/20 08:32:46;;;;;;;4.72;2.70;;;7.80;95.70;;;;;;4999307;28;20466;-84
2023/10/20 08:35:12;;;;;;;4.45;2.33;;;7.80;95.60;;;;;;4988068;28;20069;-83
2023/10/20 08:37:40;;;;;;;5.18;3.05;;;7.80;95.70;;;;;;5006485;28;20491;-82
2023/10/20 08:40:10;;;;;;;4.07;2.80;;;7.80;95.60;;;;;;4993197;28;20046;-83
2023/10/20 08:42:38;;;;;;;5.25;3.67;;;7.90;95.50;;;;;;4980063;28;20065;-83
2023/10/20 08:45:07;;;;;;;5.93;3.00;;;7.80;95.60;;;;;;5012829;28;20034;-83
2023/10/20 08:47:33;;;;;;;4.93;2.92;;;7.90;95.50;;;;;;4995658;28;20156;-83
2023/10/20 08:49:59;;;;;;;4.97;3.35;;;7.90;95.40;;;;;;4967107;28;20124;-85
2023/10/20 08:52:25;;;;;;;5.40;3.30;;;7.90;95.50;;;;;;4992884;28;20137;-84
2023/10/20 08:54:52;;;;;;;4.53;2.80;;;7.90;95.40;;;;;;4978899;28;20054;-84
2023/10/20 08:57:18;;;;;;;5.07;3.60;;;7.80;95.50;;;;;;4964745;28;20141;-84
2023/10/20 08:59:51;;;;;;;5.70;3.35;;;7.80;95.60;;;;;;4978740;28;20125;-85
2023/10/20 09:02:17;;;;;;;4.32;3.05;;;7.80;95.80;;;;;;4978556;28;20054;-85
2023/10/20 09:04:43;;;;;;;4.35;3.15;;;7.80;95.80;;;;;;4978877;28;20100;-86
2023/10/20 09:07:16;;;;;;;4.07;2.83;;;7.70;95.80;;;;;;4962491;28;20038;-83
2023/10/20 09:09:42;;;;;;;3.95;2.67;;;7.80;95.70;;;;;;4963070;28;20057;-84
2023/10/20 09:12:08;;;;;;;3.50;2.53;;;7.80;95.80;;;;;;4962334;28;20042;-87
2023/10/20 09:14:38;;;;;;;3.17;2.40;;;7.70;95.80;;;;;;4962508;28;20395;-85
2023/10/20 09:17:04;;;;;;;4.95;2.10;;;7.80;95.70;;;;;;4978422;28;20049;-87
2023/10/20 09:19:30;;;;;;;4.22;2.05;;;7.70;95.70;;;;;;4962544;28;20046;-85
2023/10/20 09:21:57;;;;;;;3.33;1.77;;;7.80;95.70;;;;;;4946225;28;20046;-86
2023/10/20 09:24:34;;;;;;;3.40;2.03;;;7.80;95.60;;;;;;4979278;28;20042;-86
2023/10/20 09:27:01;;;;;;;2.92;1.73;;;7.80;95.60;;;;;;4978619;28;20113;-86
2023/10/20 09:29:29;;;;;;;4.93;2.00;;;7.70;95.50;;;;;;4982327;28;20046;-85
2023/10/20 09:31:59;;;;;;;3.67;2.05;;;7.70;95.40;;;;;;4962252;28;20042;-85
2023/10/20 09:34:24;;;;;;;2.65;1.77;;;7.60;95.40;;;;;;4977995;28;20049;-84
2023/10/20 09:36:52;;;;;;;2.13;1.55;;;7.70;95.50;;;;;;4978831;28;20050;-87
2023/10/20 09:39:25;;;;;;;2.42;1.70;;;7.60;95.50;;;;;;4979176;28;20093;-84
2023/10/20 09:41:53;;;;;;;2.15;1.40;;;7.60;95.60;;;;;;4961776;28;20109;-86
2023/10/20 09:44:44;;;;;;;2.55;1.70;;;7.70;95.50;;;;;;4977926;28;20049;-86
2023/10/20 09:47:23;;;;;;;3.85;1.95;;;7.70;95.50;;;;;;4977995;28;20053;-85
2023/10/20 09:49:51;;;;;;;3.67;1.70;;;7.60;95.30;;;;;;4981401;28;20487;-85
2023/10/20 09:52:17;;;;;;;2.47;1.50;;;7.70;95.50;;;;;;4950555;28;20141;-86
2023/10/20 09:54:44;;;;;;;2.28;1.45;;;7.70;95.50;;;;;;4993876;28;20085;-85
2023/10/20 09:57:12;;;;;;;3.42;1.58;;;7.80;95.30;;;;;;4977705;28;20049;-86
2023/10/20 09:59:38;;;;;;;2.30;1.40;;;7.80;95.10;;;;;;4993805;28;20046;-85
2023/10/20 10:02:04;;;;;;;3.40;1.52;;;7.80;95.20;;;;;;4993627;28;20042;-86
2023/10/20 10:04:36;;;;;;;2.47;1.05;;;7.80;95.20;;;;;;4993683;28;20043;-85
2023/10/20 10:07:04;;;;;;;1.65;1.13;;;7.80;95.30;;;;;;4977615;28;20046;-85
2023/10/20 10:09:38;;;;;;;2.10;1.40;;;7.80;95.00;;;;;;4977717;28;20034;-84
2023/10/20 10:12:17;;;;;;;2.13;1.33;;;7.70;95.10;;;;;;4977344;28;20053;-84
2023/10/20 10:15:13;;;;;;;1.90;0.93;;;7.70;95.00;;;;;;4977278;28;20038;-84
2023/10/20 10:17:52;;;;;;;1.55;1.23;;;7.80;95.10;;;;;;4993743;28;20417;-84
2023/10/20 10:20:27;;;;;;;3.78;1.70;;;7.80;94.90;;;;;;4980555;28;20046;-83
2023/10/20 10:23:06;;;;;;;2.38;1.35;;;7.70;95.00;;;;;;4999206;28;20038;-83
2023/10/20 10:25:40;;;;;;;2.13;1.40;;;7.60;95.30;;;;;;4961076;28;20478;-84
2023/10/20 10:28:15;;;;;;;1.83;1.20;;;7.70;95.20;;;;;;4977826;28;20050;-87
2023/10/20 10:30:42;;;;;;;2.25;1.00;;;7.60;95.10;;;;;;4977183;28;20394;-83
2023/10/20 10:33:10;;;;;;;1.17;0.73;;;7.60;95.10;;;;;;4963974;28;20050;-83
2023/10/20 10:35:40;;;;;;;3.30;1.10;;;7.60;95.10;;;;;;4996917;28;20510;-85
2023/10/20 10:38:22;;;;;;;1.58;0.88;;;7.60;95.10;;;;;;4993287;28;20078;-83
2023/10/20 10:40:53;;;;;;;1.15;0.88;;;7.50;95.10;;;;;;4976795;28;20443;-83
2023/10/20 10:43:21;;;;;;;1.65;0.90;;;7.50;95.20;;;;;;4991737;28;20472;-84
2023/10/20 10:45:56;;;;;;;3.45;1.42;;;7.60;95.40;;;;;;4949123;28;20552;-82
2023/10/20 10:48:29;;;;;;;2.33;0.80;;;7.50;95.00;;;;;;4971619;28;20043;-84
2023/10/20 10:50:55;;;;;;;2.22;0.98;;;7.60;95.30;;;;;;4979085;28;20391;-82
2023/10/20 10:53:21;;;;;;;1.38;0.70;;;7.60;95.30;;;;;;4982397;28;20059;-83
2023/10/20 10:55:47;;;;;;;3.05;1.00;;;7.60;95.30;;;;;;4973496;28;20439;-84
2023/10/20 10:58:14;;;;;;;2.55;1.10;;;7.60;95.10;;;;;;4973184;28;20104;-82
2023/10/20 11:00:44;;;;;;;5.45;1.20;;;7.60;95.20;;;;;;4941688;28;20399;-82
2023/10/20 11:03:11;;;;;;;2.35;0.90;;;7.60;94.90;;;;;;4973621;28;20489;-82
2023/10/20 11:05:37;;;;;;;1.80;1.00;;;7.60;95.20;;;;;;4973635;28;20050;-83
2023/10/20 11:08:08;;;;;;;1.23;0.77;;;7.50;95.20;;;;;;4975214;28;20054;-85
2023/10/20 11:10:42;;;;;;;1.60;0.80;;;7.50;95.20;;;;;;4973644;28;20386;-84
2023/10/20 11:13:13;;;;;;;1.13;0.90;;;7.50;95.30;;;;;;4973499;28;20039;-86
2023/10/20 11:15:40;;;;;;;1.98;0.98;;;7.60;95.10;;;;;;4957624;28;20510;-85
2023/10/20 11:18:07;;;;;;;1.27;0.80;;;7.70;95.00;;;;;;4973365;28;20049;-85
2023/10/20 11:20:41;;;;;;;1.10;0.73;;;7.80;94.80;;;;;;4956872;28;20121;-85
2023/10/20 11:23:08;;;;;;;1.95;0.75;;;7.80;94.60;;;;;;4973120;28;20038;-84
2023/10/20 11:25:36;;;;;;;1.17;0.60;;;7.80;94.40;;;;;;4953154;28;20038;-85
2023/10/20 11:28:04;;;;;;;0.98;0.60;;;7.80;94.50;;;;;;5010367;28;20041;-86
2023/10/20 11:30:34;;;;;;;1.90;0.50;;;7.80;94.30;;;;;;4962258;28;20044;-85
2023/10/20 11:33:00;;;;;;;1.52;0.90;;;7.80;94.40;;;;;;4993372;28;20038;-85
2023/10/20 11:35:26;;;;;;;1.15;0.73;;;7.80;94.30;;;;;;4960449;28;20042;-86
2023/10/20 11:37:56;;;;;;;1.63;0.70;;;7.80;94.40;;;;;;4976108;28;20068;-85
2023/10/20 11:40:23;;;;;;;2.53;0.85;;;7.80;94.50;;;;;;4960344;28;20042;-85
2023/10/20 11:42:49;;;;;;;1.45;0.60;;;7.80;94.50;;;;;;4995227;28;20174;-85
2023/10/20 11:45:15;;;;;;;1.13;0.68;;;7.80;94.30;;;;;;5009556;28;20070;-85
2023/10/20 11:47:42;;;;;;;1.17;0.50;;;7.80;94.40;;;;;;4995043;28;20034;-85
2023/10/20 11:50:09;;;;;;;1.02;0.70;;;7.90;94.30;;;;;;4996124;28;20035;-85
2023/10/20 11:52:37;;;;;;;0.60;0.50;;;7.80;94.30;;;;;;4983355;28;20065;-85
2023/10/20 11:55:03;;;;;;;0.85;0.60;;;7.80;94.30;;;;;;4963884;28;20561;-85
2023/10/20 11:57:29;;;;;;;0.88;0.55;;;7.80;94.20;;;;;;4996285;28;20045;-85
2023/10/20 11:59:55;;;;;;;1.83;0.57;;;8.00;94.30;;;;;;4996076;28;20042;-85
2023/10/20 12:02:21;;;;;;;1.52;0.60;;;8.00;94.10;;;;;;4981797;28;20239;-84
2023/10/20 12:04:46;;;;;;;0.70;0.40;;;8.00;94.00;;;;;;4966447;28;20439;-83
2023/10/20 12:07:12;;;;;;;0.65;0.43;;;8.00;94.20;;;;;;4964042;28;20038;-85
2023/10/20 12:09:38;;;;;;;0.75;0.47;;;7.90;93.80;;;;;;4963515;28;20041;-84
2023/10/20 12:12:04;;;;;;;2.10;0.45;;;7.90;94.20;;;;;;4963624;28;20081;-83
2023/10/20 12:14:30;;;;;;;1.17;0.40;;;7.80;94.20;;;;;;4979716;28;20050;-84
2023/10/20 12:16:55;;;;;;;0.50;0.38;;;7.80;94.20;;;;;;4996108;28;20054;-84
2023/10/20 12:19:21;;;;;;;0.60;0.40;;;7.90;94.10;;;;;;4995526;28;20494;-85
2023/10/20 12:21:47;;;;;;;0.40;0.40;;;7.80;94.20;;;;;;4981263;28;20042;-84
2023/10/20 12:24:12;;;;;;;0.80;0.45;;;7.80;93.90;;;;;;4995710;28;20089;-83
2023/10/20 12:26:39;;;;;;;1.42;0.47;;;7.80;93.90;;;;;;4964006;28;20069;-84
2023/10/20 12:29:06;;;;;;;1.05;0.40;;;7.70;94.10;;;;;;4978638;28;20038;-85
2023/10/20 12:31:32;;;;;;;0.75;0.30;;;7.70;93.90;;;;;;4993789;28;20069;-85
2023/10/20 12:33:58;;;;;;;0.60;0.40;;;7.70;94.10;;;;;;4994249;28;20133;-85
2023/10/20 12:36:28;;;;;;;1.92;0.50;;;7.80;94.20;;;;;;4978271;28;20090;-85
2023/10/20 12:38:55;;;;;;;1.95;0.60;;;7.80;94.10;;;;;;4992158;28;20034;-86
2023/10/20 12:41:21;;;;;;;0.60;0.60;;;7.60;94.10;;;;;;4976879;28;20157;-85
2023/10/20 12:43:48;;;;;;;1.52;0.40;;;7.70;94.50;;;;;;4951576;28;20125;-85
2023/10/20 12:46:14;;;;;;;0.63;0.32;;;7.60;94.40;;;;;;4975945;28;20050;-84
2023/10/20 12:48:40;;;;;;;1.38;0.50;;;7.70;94.50;;;;;;4967913;28;20057;-85
2023/10/20 12:51:13;;;;;;;0.95;0.40;;;7.70;94.30;;;;;;4976369;28;20113;-86
2023/10/20 12:53:39;;;;;;;1.00;0.50;;;7.70;94.50;;;;;;5010103;28;20058;-85
2023/10/20 12:56:06;;;;;;;1.27;0.30;;;7.70;94.40;;;;;;5004839;28;20490;-84
2023/10/20 12:58:32;;;;;;;1.00;0.52;;;7.70;94.50;;;;;;4983075;28;20038;-85
2023/10/20 13:00:58;;;;;;;0.70;0.40;;;7.70;94.30;;;;;;4949270;28;20074;-86
2023/10/20 13:03:26;;;;;;;0.60;0.40;;;7.60;94.60;;;;;;4953815;28;20042;-84
2023/10/20 13:05:53;;;;;;;0.80;0.50;;;7.60;94.60;;;;;;4967993;28;20042;-85
2023/10/20 13:08:18;;;;;;;0.77;0.40;;;7.60;94.50;;;;;;4963611;28;20564;-84
2023/10/20 13:10:46;;;;;;;1.13;0.50;;;7.60;94.70;;;;;;4975513;28;20125;-86
2023/10/20 13:13:12;;;;;;;1.17;0.50;;;7.60;94.70;;;;;;4966216;28;20045;-84
2023/10/20 13:15:38;;;;;;;1.98;0.90;;;7.50;94.80;;;;;;4995504;28;20057;-85
2023/10/20 13:18:04;;;;;;;0.95;0.50;;;7.50;94.90;;;;;;4949593;28;20046;-84